sensor_id;sensor_type;location;lat;lon;timestamp;temperature;humidity
16974;DHT22;8603;46.944;7.412;2023-08-24T00:01:46;22.90;99.90
16974;DHT22;8603;46.944;7.412;2023-08-24T00:04:12;22.90;99.90
16974;DHT22;8603;46.944;7.412;2023-08-24T00:06:37;22.90;99.90
16974;DHT22;8603;46.944;7.412;2023-08-24T00:09:03;22.80;99.90
16974;DHT22;8603;46.944;7.412;2023-08-24T00:11:32;22.80;99.90
16974;DHT22;8603;46.944;7.412;2023-08-24T00:13:58;22.70;99.90
16974;DHT22;8603;46.944;7.412;2023-08-24T00:16:23;22.70;99.90
16974;DHT22;8603;46.944;7.412;2023-08-24T00:18:49;22.70;99.90
16974;DHT22;8603;46.944;7.412;2023-08-24T00:21:15;22.70;99.90
16974;DHT22;8603;46.944;7.412;2023-08-24T00:23:43;22.70;99.90
16974;DHT22;8603;46.944;7.412;2023-08-24T00:26:09;22.60;99.90
16974;DHT22;8603;46.944;7.412;2023-08-24T00:28:34;22.50;99.90
16974;DHT22;8603;46.944;7.412;2023-08-24T00:31:00;22.50;99.90
16974;DHT22;8603;46.944;7.412;2023-08-24T00:33:26;22.50;99.90
16974;DHT22;8603;46.944;7.412;2023-08-24T00:35:51;22.50;99.90
16974;DHT22;8603;46.944;7.412;2023-08-24T00:38:17;22.50;99.90
16974;DHT22;8603;46.944;7.412;2023-08-24T00:40:43;22.40;99.90
16974;DHT22;8603;46.944;7.412;2023-08-24T00:43:09;22.50;99.90
16974;DHT22;8603;46.944;7.412;2023-08-24T00:45:35;22.50;99.90
16974;DHT22;8603;46.944;7.412;2023-08-24T00:48:01;22.50;99.90
16974;DHT22;8603;46.944;7.412;2023-08-24T00:50:27;22.50;99.90
16974;DHT22;8603;46.944;7.412;2023-08-24T00:52:53;22.50;99.90
16974;DHT22;8603;46.944;7.412;2023-08-24T00:55:20;22.50;99.90
16974;DHT22;8603;46.944;7.412;2023-08-24T00:57:46;22.50;99.90
16974;DHT22;8603;46.944;7.412;2023-08-24T01:00:13;22.40;99.90
16974;DHT22;8603;46.944;7.412;2023-08-24T01:02:39;22.40;99.90
16974;DHT22;8603;46.944;7.412;2023-08-24T01:05:05;22.40;99.90
16974;DHT22;8603;46.944;7.412;2023-08-24T01:07:32;22.30;99.90
16974;DHT22;8603;46.944;7.412;2023-08-24T01:09:59;22.30;99.90
16974;DHT22;8603;46.944;7.412;2023-08-24T01:12:47;22.30;99.90
16974;DHT22;8603;46.944;7.412;2023-08-24T01:15:19;22.20;99.90
16974;DHT22;8603;46.944;7.412;2023-08-24T01:17:50;22.20;99.90
16974;DHT22;8603;46.944;7.412;2023-08-24T01:20:18;22.20;99.90
16974;DHT22;8603;46.944;7.412;2023-08-24T01:25:40;22.10;99.90
16974;DHT22;8603;46.944;7.412;2023-08-24T01:28:08;22.10;99.90
16974;DHT22;8603;46.944;7.412;2023-08-24T01:30:34;22.10;99.90
16974;DHT22;8603;46.944;7.412;2023-08-24T01:33:03;22.10;99.90
16974;DHT22;8603;46.944;7.412;2023-08-24T01:35:30;22.00;99.90
16974;DHT22;8603;46.944;7.412;2023-08-24T01:37:56;22.00;99.90
16974;DHT22;8603;46.944;7.412;2023-08-24T01:40:28;21.90;99.90
16974;DHT22;8603;46.944;7.412;2023-08-24T01:42:59;21.80;99.90
16974;DHT22;8603;46.944;7.412;2023-08-24T01:45:29;21.80;99.90
16974;DHT22;8603;46.944;7.412;2023-08-24T01:51:01;21.70;99.90
16974;DHT22;8603;46.944;7.412;2023-08-24T01:53:30;21.70;99.90
16974;DHT22;8603;46.944;7.412;2023-08-24T01:55:58;21.70;99.90
16974;DHT22;8603;46.944;7.412;2023-08-24T01:58:23;21.70;99.90
16974;DHT22;8603;46.944;7.412;2023-08-24T02:00:49;21.70;99.90
16974;DHT22;8603;46.944;7.412;2023-08-24T02:03:15;21.70;99.90
16974;DHT22;8603;46.944;7.412;2023-08-24T02:05:41;21.70;99.90
16974;DHT22;8603;46.944;7.412;2023-08-24T02:08:06;21.70;99.90
16974;DHT22;8603;46.944;7.412;2023-08-24T02:10:32;21.70;99.90
16974;DHT22;8603;46.944;7.412;2023-08-24T02:12:57;21.70;99.90
16974;DHT22;8603;46.944;7.412;2023-08-24T02:15:23;21.70;99.90
16974;DHT22;8603;46.944;7.412;2023-08-24T02:17:49;21.70;99.90
16974;DHT22;8603;46.944;7.412;2023-08-24T02:20:14;21.70;99.90
16974;DHT22;8603;46.944;7.412;2023-08-24T02:22:40;21.70;99.90
16974;DHT22;8603;46.944;7.412;2023-08-24T02:25:06;21.60;99.90
16974;DHT22;8603;46.944;7.412;2023-08-24T02:27:32;21.60;99.90
16974;DHT22;8603;46.944;7.412;2023-08-24T02:30:04;21.60;99.90
16974;DHT22;8603;46.944;7.412;2023-08-24T02:32:35;21.50;99.90
16974;DHT22;8603;46.944;7.412;2023-08-24T02:35:00;21.50;99.90
16974;DHT22;8603;46.944;7.412;2023-08-24T02:37:26;21.50;99.90
16974;DHT22;8603;46.944;7.412;2023-08-24T02:39:51;21.50;99.90
16974;DHT22;8603;46.944;7.412;2023-08-24T02:42:19;21.40;99.90
16974;DHT22;8603;46.944;7.412;2023-08-24T02:44:45;21.30;99.90
16974;DHT22;8603;46.944;7.412;2023-08-24T02:47:11;21.20;99.90
16974;DHT22;8603;46.944;7.412;2023-08-24T02:49:39;21.20;99.90
16974;DHT22;8603;46.944;7.412;2023-08-24T02:52:05;21.20;99.90
16974;DHT22;8603;46.944;7.412;2023-08-24T02:54:30;21.10;99.90
16974;DHT22;8603;46.944;7.412;2023-08-24T02:56:56;21.10;99.90
16974;DHT22;8603;46.944;7.412;2023-08-24T02:59:21;21.10;99.90
16974;DHT22;8603;46.944;7.412;2023-08-24T03:01:47;21.10;99.90
16974;DHT22;8603;46.944;7.412;2023-08-24T03:04:12;21.00;99.90
16974;DHT22;8603;46.944;7.412;2023-08-24T03:06:38;20.90;99.90
16974;DHT22;8603;46.944;7.412;2023-08-24T03:09:03;20.90;99.90
16974;DHT22;8603;46.944;7.412;2023-08-24T03:11:29;20.80;99.90
16974;DHT22;8603;46.944;7.412;2023-08-24T03:13:55;20.80;99.90
16974;DHT22;8603;46.944;7.412;2023-08-24T03:16:24;20.80;99.90
16974;DHT22;8603;46.944;7.412;2023-08-24T03:18:49;20.80;99.90
16974;DHT22;8603;46.944;7.412;2023-08-24T03:21:15;20.80;99.90
16974;DHT22;8603;46.944;7.412;2023-08-24T03:23:41;20.80;99.90
16974;DHT22;8603;46.944;7.412;2023-08-24T03:26:09;20.80;99.90
16974;DHT22;8603;46.944;7.412;2023-08-24T03:28:34;20.80;99.90
16974;DHT22;8603;46.944;7.412;2023-08-24T03:31:00;20.80;99.90
16974;DHT22;8603;46.944;7.412;2023-08-24T03:33:26;20.80;99.90
16974;DHT22;8603;46.944;7.412;2023-08-24T03:35:53;20.80;99.90
16974;DHT22;8603;46.944;7.412;2023-08-24T03:38:19;20.70;99.90
16974;DHT22;8603;46.944;7.412;2023-08-24T03:40:45;20.70;99.90
16974;DHT22;8603;46.944;7.412;2023-08-24T03:43:11;20.60;99.90
16974;DHT22;8603;46.944;7.412;2023-08-24T03:45:36;20.60;99.90
16974;DHT22;8603;46.944;7.412;2023-08-24T03:48:02;20.60;99.90
16974;DHT22;8603;46.944;7.412;2023-08-24T03:50:28;20.50;99.90
16974;DHT22;8603;46.944;7.412;2023-08-24T03:52:54;20.50;99.90
16974;DHT22;8603;46.944;7.412;2023-08-24T03:55:20;20.50;99.90
16974;DHT22;8603;46.944;7.412;2023-08-24T03:57:46;20.40;99.90
16974;DHT22;8603;46.944;7.412;2023-08-24T04:00:13;20.40;99.90
16974;DHT22;8603;46.944;7.412;2023-08-24T04:02:42;20.30;99.90
16974;DHT22;8603;46.944;7.412;2023-08-24T04:05:08;20.30;99.90
16974;DHT22;8603;46.944;7.412;2023-08-24T04:07:34;20.30;99.90
16974;DHT22;8603;46.944;7.412;2023-08-24T04:10:02;20.30;99.90
16974;DHT22;8603;46.944;7.412;2023-08-24T04:12:30;20.30;99.90
16974;DHT22;8603;46.944;7.412;2023-08-24T04:14:56;20.20;99.90
16974;DHT22;8603;46.944;7.412;2023-08-24T04:17:23;20.20;99.90
16974;DHT22;8603;46.944;7.412;2023-08-24T04:19:51;20.20;99.90
16974;DHT22;8603;46.944;7.412;2023-08-24T04:22:17;20.10;99.90
16974;DHT22;8603;46.944;7.412;2023-08-24T04:24:43;20.10;99.90
16974;DHT22;8603;46.944;7.412;2023-08-24T04:27:09;20.10;99.90
16974;DHT22;8603;46.944;7.412;2023-08-24T04:29:34;20.00;99.90
16974;DHT22;8603;46.944;7.412;2023-08-24T04:32:00;20.00;99.90
16974;DHT22;8603;46.944;7.412;2023-08-24T04:34:25;20.00;99.90
16974;DHT22;8603;46.944;7.412;2023-08-24T04:36:51;20.00;99.90
16974;DHT22;8603;46.944;7.412;2023-08-24T04:39:17;20.00;99.90
16974;DHT22;8603;46.944;7.412;2023-08-24T04:41:44;19.90;99.90
16974;DHT22;8603;46.944;7.412;2023-08-24T04:44:09;19.90;99.90
16974;DHT22;8603;46.944;7.412;2023-08-24T04:46:35;19.90;99.90
16974;DHT22;8603;46.944;7.412;2023-08-24T04:49:00;19.90;99.90
16974;DHT22;8603;46.944;7.412;2023-08-24T04:51:26;19.90;99.90
16974;DHT22;8603;46.944;7.412;2023-08-24T04:53:53;19.90;99.90
16974;DHT22;8603;46.944;7.412;2023-08-24T04:56:19;19.90;99.90
16974;DHT22;8603;46.944;7.412;2023-08-24T04:58:57;19.90;99.90
16974;DHT22;8603;46.944;7.412;2023-08-24T05:01:27;19.90;99.90
16974;DHT22;8603;46.944;7.412;2023-08-24T05:03:53;19.90;99.90
16974;DHT22;8603;46.944;7.412;2023-08-24T05:06:20;19.90;99.90
16974;DHT22;8603;46.944;7.412;2023-08-24T05:08:46;19.90;99.90
16974;DHT22;8603;46.944;7.412;2023-08-24T05:11:13;19.90;99.90
16974;DHT22;8603;46.944;7.412;2023-08-24T05:13:40;19.90;99.90
16974;DHT22;8603;46.944;7.412;2023-08-24T05:16:05;19.90;99.90
16974;DHT22;8603;46.944;7.412;2023-08-24T05:18:31;19.90;99.90
16974;DHT22;8603;46.944;7.412;2023-08-24T05:20:56;19.90;99.90
16974;DHT22;8603;46.944;7.412;2023-08-24T05:23:22;19.90;99.90
16974;DHT22;8603;46.944;7.412;2023-08-24T05:25:48;20.00;99.90
16974;DHT22;8603;46.944;7.412;2023-08-24T05:28:13;20.10;99.90
16974;DHT22;8603;46.944;7.412;2023-08-24T05:30:39;20.10;99.90
16974;DHT22;8603;46.944;7.412;2023-08-24T05:33:04;20.10;99.90
16974;DHT22;8603;46.944;7.412;2023-08-24T05:35:30;20.20;99.90
16974;DHT22;8603;46.944;7.412;2023-08-24T05:37:55;20.30;99.90
16974;DHT22;8603;46.944;7.412;2023-08-24T05:40:21;20.50;99.90
16974;DHT22;8603;46.944;7.412;2023-08-24T05:42:46;20.60;99.90
16974;DHT22;8603;46.944;7.412;2023-08-24T05:45:12;20.60;99.90
16974;DHT22;8603;46.944;7.412;2023-08-24T05:47:37;20.70;99.90
16974;DHT22;8603;46.944;7.412;2023-08-24T05:50:03;20.80;99.90
16974;DHT22;8603;46.944;7.412;2023-08-24T05:52:29;20.90;99.90
16974;DHT22;8603;46.944;7.412;2023-08-24T05:54:54;21.00;99.90
16974;DHT22;8603;46.944;7.412;2023-08-24T05:57:20;21.10;99.90
16974;DHT22;8603;46.944;7.412;2023-08-24T05:59:45;21.20;99.90
16974;DHT22;8603;46.944;7.412;2023-08-24T06:02:11;21.30;99.90
16974;DHT22;8603;46.944;7.412;2023-08-24T06:04:36;21.40;99.90
16974;DHT22;8603;46.944;7.412;2023-08-24T06:07:02;21.50;99.90
16974;DHT22;8603;46.944;7.412;2023-08-24T06:09:30;21.60;99.90
16974;DHT22;8603;46.944;7.412;2023-08-24T06:11:58;21.70;99.90
16974;DHT22;8603;46.944;7.412;2023-08-24T06:14:24;21.80;99.90
16974;DHT22;8603;46.944;7.412;2023-08-24T06:16:49;21.90;99.90
16974;DHT22;8603;46.944;7.412;2023-08-24T06:19:15;22.00;99.90
16974;DHT22;8603;46.944;7.412;2023-08-24T06:21:41;22.10;99.90
16974;DHT22;8603;46.944;7.412;2023-08-24T06:24:06;22.20;99.90
16974;DHT22;8603;46.944;7.412;2023-08-24T06:26:32;22.40;99.90
16974;DHT22;8603;46.944;7.412;2023-08-24T06:28:57;22.60;99.90
16974;DHT22;8603;46.944;7.412;2023-08-24T06:31:23;22.80;99.90
16974;DHT22;8603;46.944;7.412;2023-08-24T06:33:49;23.10;99.90
16974;DHT22;8603;46.944;7.412;2023-08-24T06:36:15;23.30;99.90
16974;DHT22;8603;46.944;7.412;2023-08-24T06:38:40;23.40;99.90
16974;DHT22;8603;46.944;7.412;2023-08-24T06:41:06;23.50;99.90
16974;DHT22;8603;46.944;7.412;2023-08-24T06:43:36;23.70;99.90
16974;DHT22;8603;46.944;7.412;2023-08-24T06:46:04;23.90;99.90
16974;DHT22;8603;46.944;7.412;2023-08-24T06:48:36;24.10;99.90
16974;DHT22;8603;46.944;7.412;2023-08-24T06:51:03;24.40;99.90
16974;DHT22;8603;46.944;7.412;2023-08-24T06:53:28;24.60;99.90
16974;DHT22;8603;46.944;7.412;2023-08-24T06:55:55;24.80;99.90
16974;DHT22;8603;46.944;7.412;2023-08-24T06:58:21;25.10;99.90
16974;DHT22;8603;46.944;7.412;2023-08-24T07:00:47;25.30;99.90
16974;DHT22;8603;46.944;7.412;2023-08-24T07:03:12;25.70;99.90
16974;DHT22;8603;46.944;7.412;2023-08-24T07:05:38;26.10;99.90
16974;DHT22;8603;46.944;7.412;2023-08-24T07:08:04;26.50;99.90
16974;DHT22;8603;46.944;7.412;2023-08-24T07:10:30;26.90;99.90
16974;DHT22;8603;46.944;7.412;2023-08-24T07:12:56;27.40;99.90
16974;DHT22;8603;46.944;7.412;2023-08-24T07:15:22;27.80;99.90
16974;DHT22;8603;46.944;7.412;2023-08-24T07:17:49;28.30;99.90
16974;DHT22;8603;46.944;7.412;2023-08-24T07:20:14;28.60;99.90
16974;DHT22;8603;46.944;7.412;2023-08-24T07:22:40;28.80;99.90
16974;DHT22;8603;46.944;7.412;2023-08-24T07:25:06;29.00;99.90
16974;DHT22;8603;46.944;7.412;2023-08-24T07:27:33;29.20;99.90
16974;DHT22;8603;46.944;7.412;2023-08-24T07:29:59;29.50;99.90
16974;DHT22;8603;46.944;7.412;2023-08-24T07:32:26;29.80;99.90
16974;DHT22;8603;46.944;7.412;2023-08-24T07:34:52;30.00;99.90
16974;DHT22;8603;46.944;7.412;2023-08-24T07:37:20;30.20;99.90
16974;DHT22;8603;46.944;7.412;2023-08-24T07:39:48;30.40;99.90
16974;DHT22;8603;46.944;7.412;2023-08-24T07:42:15;30.70;99.90
16974;DHT22;8603;46.944;7.412;2023-08-24T07:44:44;31.00;99.90
16974;DHT22;8603;46.944;7.412;2023-08-24T07:47:11;31.30;99.90
16974;DHT22;8603;46.944;7.412;2023-08-24T07:49:46;31.50;99.90
16974;DHT22;8603;46.944;7.412;2023-08-24T07:52:51;31.70;99.90
16974;DHT22;8603;46.944;7.412;2023-08-24T07:55:46;31.90;99.90
16974;DHT22;8603;46.944;7.412;2023-08-24T07:58:12;32.10;99.90
16974;DHT22;8603;46.944;7.412;2023-08-24T08:00:43;32.20;99.90
16974;DHT22;8603;46.944;7.412;2023-08-24T08:03:09;32.30;99.90
16974;DHT22;8603;46.944;7.412;2023-08-24T08:05:35;32.20;99.90
16974;DHT22;8603;46.944;7.412;2023-08-24T08:08:00;32.20;99.90
16974;DHT22;8603;46.944;7.412;2023-08-24T08:10:55;32.20;99.90
16974;DHT22;8603;46.944;7.412;2023-08-24T08:13:20;32.30;99.90
16974;DHT22;8603;46.944;7.412;2023-08-24T08:15:46;32.60;99.90
16974;DHT22;8603;46.944;7.412;2023-08-24T08:18:13;32.70;99.90
16974;DHT22;8603;46.944;7.412;2023-08-24T08:20:39;32.80;99.90
16974;DHT22;8603;46.944;7.412;2023-08-24T08:23:08;33.00;99.90
16974;DHT22;8603;46.944;7.412;2023-08-24T08:25:38;33.00;99.90
16974;DHT22;8603;46.944;7.412;2023-08-24T08:31:14;33.30;99.90
16974;DHT22;8603;46.944;7.412;2023-08-24T08:33:42;33.20;99.90
16974;DHT22;8603;46.944;7.412;2023-08-24T08:36:25;33.20;99.90
16974;DHT22;8603;46.944;7.412;2023-08-24T08:39:10;33.20;99.90
16974;DHT22;8603;46.944;7.412;2023-08-24T08:42:03;33.20;99.90
16974;DHT22;8603;46.944;7.412;2023-08-24T08:44:31;33.30;99.90
16974;DHT22;8603;46.944;7.412;2023-08-24T08:47:24;33.50;99.90
16974;DHT22;8603;46.944;7.412;2023-08-24T08:50:09;33.80;99.90
16974;DHT22;8603;46.944;7.412;2023-08-24T08:52:36;34.10;99.90
16974;DHT22;8603;46.944;7.412;2023-08-24T08:55:01;34.40;99.90
16974;DHT22;8603;46.944;7.412;2023-08-24T08:57:31;34.50;99.20
16974;DHT22;8603;46.944;7.412;2023-08-24T09:00:21;34.60;98.80
16974;DHT22;8603;46.944;7.412;2023-08-24T09:03:13;34.80;98.10
16974;DHT22;8603;46.944;7.412;2023-08-24T09:06:31;35.00;97.60
16974;DHT22;8603;46.944;7.412;2023-08-24T09:09:12;35.30;97.40
16974;DHT22;8603;46.944;7.412;2023-08-24T09:11:48;35.50;96.60
16974;DHT22;8603;46.944;7.412;2023-08-24T09:14:17;35.70;96.30
16974;DHT22;8603;46.944;7.412;2023-08-24T09:17:19;35.80;96.40
16974;DHT22;8603;46.944;7.412;2023-08-24T09:20:20;35.80;95.90
16974;DHT22;8603;46.944;7.412;2023-08-24T09:23:20;35.70;95.80
16974;DHT22;8603;46.944;7.412;2023-08-24T09:29:15;35.90;95.90
16974;DHT22;8603;46.944;7.412;2023-08-24T09:31:50;35.80;94.80
16974;DHT22;8603;46.944;7.412;2023-08-24T09:34:24;35.90;95.00
16974;DHT22;8603;46.944;7.412;2023-08-24T09:36:53;36.20;95.20
16974;DHT22;8603;46.944;7.412;2023-08-24T09:39:20;36.40;94.40
16974;DHT22;8603;46.944;7.412;2023-08-24T09:41:49;36.50;93.90
16974;DHT22;8603;46.944;7.412;2023-08-24T09:44:16;36.70;93.60
16974;DHT22;8603;46.944;7.412;2023-08-24T09:46:42;36.90;93.00
16974;DHT22;8603;46.944;7.412;2023-08-24T09:49:09;37.00;93.00
16974;DHT22;8603;46.944;7.412;2023-08-24T09:51:37;36.90;92.40
16974;DHT22;8603;46.944;7.412;2023-08-24T09:54:09;36.90;92.90
16974;DHT22;8603;46.944;7.412;2023-08-24T09:56:37;36.80;92.80
16974;DHT22;8603;46.944;7.412;2023-08-24T09:59:17;36.60;92.80
16974;DHT22;8603;46.944;7.412;2023-08-24T10:01:51;36.50;93.00
16974;DHT22;8603;46.944;7.412;2023-08-24T10:04:25;36.30;93.00
16974;DHT22;8603;46.944;7.412;2023-08-24T10:06:58;36.10;92.90
16974;DHT22;8603;46.944;7.412;2023-08-24T10:09:33;35.90;92.90
16974;DHT22;8603;46.944;7.412;2023-08-24T10:12:04;35.90;92.70
16974;DHT22;8603;46.944;7.412;2023-08-24T10:14:53;35.80;92.80
16974;DHT22;8603;46.944;7.412;2023-08-24T10:17:22;35.70;93.10
16974;DHT22;8603;46.944;7.412;2023-08-24T10:19:52;35.60;92.90
16974;DHT22;8603;46.944;7.412;2023-08-24T10:22:19;35.50;92.50
16974;DHT22;8603;46.944;7.412;2023-08-24T10:24:47;35.40;92.80
16974;DHT22;8603;46.944;7.412;2023-08-24T10:27:14;35.30;92.80
16974;DHT22;8603;46.944;7.412;2023-08-24T10:29:40;35.20;93.10
16974;DHT22;8603;46.944;7.412;2023-08-24T10:32:06;35.20;93.00
16974;DHT22;8603;46.944;7.412;2023-08-24T10:34:33;35.20;92.60
16974;DHT22;8603;46.944;7.412;2023-08-24T10:37:08;35.20;92.60
16974;DHT22;8603;46.944;7.412;2023-08-24T10:39:35;35.10;92.70
16974;DHT22;8603;46.944;7.412;2023-08-24T10:42:03;35.10;92.60
16974;DHT22;8603;46.944;7.412;2023-08-24T10:44:36;35.00;92.20
16974;DHT22;8603;46.944;7.412;2023-08-24T10:49:32;34.70;92.20
16974;DHT22;8603;46.944;7.412;2023-08-24T10:51:57;34.60;92.60
16974;DHT22;8603;46.944;7.412;2023-08-24T10:54:30;34.50;92.50
16974;DHT22;8603;46.944;7.412;2023-08-24T10:56:57;34.40;93.20
16974;DHT22;8603;46.944;7.412;2023-08-24T10:59:24;34.50;93.50
16974;DHT22;8603;46.944;7.412;2023-08-24T11:04:18;34.60;93.60
16974;DHT22;8603;46.944;7.412;2023-08-24T11:06:57;34.60;93.20
16974;DHT22;8603;46.944;7.412;2023-08-24T11:09:24;34.60;92.80
16974;DHT22;8603;46.944;7.412;2023-08-24T11:12:01;34.60;92.50
16974;DHT22;8603;46.944;7.412;2023-08-24T11:14:27;34.60;92.80
16974;DHT22;8603;46.944;7.412;2023-08-24T11:16:59;34.60;92.20
16974;DHT22;8603;46.944;7.412;2023-08-24T11:19:52;34.70;92.60
16974;DHT22;8603;46.944;7.412;2023-08-24T11:22:45;34.70;91.90
16974;DHT22;8603;46.944;7.412;2023-08-24T11:25:17;34.80;92.10
16974;DHT22;8603;46.944;7.412;2023-08-24T11:27:43;34.80;92.80
16974;DHT22;8603;46.944;7.412;2023-08-24T11:30:11;34.70;92.60
16974;DHT22;8603;46.944;7.412;2023-08-24T11:32:40;34.70;92.60
16974;DHT22;8603;46.944;7.412;2023-08-24T11:35:10;34.80;92.10
16974;DHT22;8603;46.944;7.412;2023-08-24T11:37:36;34.80;92.20
16974;DHT22;8603;46.944;7.412;2023-08-24T11:40:01;34.90;92.30
16974;DHT22;8603;46.944;7.412;2023-08-24T11:42:36;35.00;92.30
16974;DHT22;8603;46.944;7.412;2023-08-24T11:45:01;35.10;91.90
16974;DHT22;8603;46.944;7.412;2023-08-24T11:47:28;35.10;91.30
16974;DHT22;8603;46.944;7.412;2023-08-24T11:49:54;35.20;91.20
16974;DHT22;8603;46.944;7.412;2023-08-24T11:52:19;35.20;91.40
16974;DHT22;8603;46.944;7.412;2023-08-24T11:54:45;35.20;90.90
16974;DHT22;8603;46.944;7.412;2023-08-24T11:57:12;35.30;91.40
16974;DHT22;8603;46.944;7.412;2023-08-24T11:59:39;35.30;91.10
16974;DHT22;8603;46.944;7.412;2023-08-24T12:02:04;35.40;91.80
16974;DHT22;8603;46.944;7.412;2023-08-24T12:04:40;35.40;91.40
16974;DHT22;8603;46.944;7.412;2023-08-24T12:07:13;35.40;91.30
16974;DHT22;8603;46.944;7.412;2023-08-24T12:09:40;35.30;91.60
16974;DHT22;8603;46.944;7.412;2023-08-24T12:12:11;35.30;91.80
16974;DHT22;8603;46.944;7.412;2023-08-24T12:14:44;35.30;91.30
16974;DHT22;8603;46.944;7.412;2023-08-24T12:17:10;35.20;92.00
16974;DHT22;8603;46.944;7.412;2023-08-24T12:19:36;35.30;91.90
16974;DHT22;8603;46.944;7.412;2023-08-24T12:22:03;35.30;92.10
16974;DHT22;8603;46.944;7.412;2023-08-24T12:24:28;35.40;91.60
16974;DHT22;8603;46.944;7.412;2023-08-24T12:26:57;35.40;91.50
16974;DHT22;8603;46.944;7.412;2023-08-24T12:29:25;35.40;92.00
16974;DHT22;8603;46.944;7.412;2023-08-24T12:31:50;35.40;92.10
16974;DHT22;8603;46.944;7.412;2023-08-24T12:34:16;35.50;92.40
16974;DHT22;8603;46.944;7.412;2023-08-24T12:36:42;35.60;91.50
16974;DHT22;8603;46.944;7.412;2023-08-24T12:39:11;35.70;91.60
16974;DHT22;8603;46.944;7.412;2023-08-24T12:41:38;35.70;90.70
16974;DHT22;8603;46.944;7.412;2023-08-24T12:44:04;35.70;91.00
16974;DHT22;8603;46.944;7.412;2023-08-24T12:46:34;35.70;91.20
16974;DHT22;8603;46.944;7.412;2023-08-24T12:49:01;35.70;90.90
16974;DHT22;8603;46.944;7.412;2023-08-24T12:51:26;35.70;90.90
16974;DHT22;8603;46.944;7.412;2023-08-24T12:53:52;35.80;90.90
16974;DHT22;8603;46.944;7.412;2023-08-24T12:56:17;35.80;91.00
16974;DHT22;8603;46.944;7.412;2023-08-24T12:58:43;35.90;91.20
16974;DHT22;8603;46.944;7.412;2023-08-24T13:01:10;35.90;91.20
16974;DHT22;8603;46.944;7.412;2023-08-24T13:03:36;35.90;90.90
16974;DHT22;8603;46.944;7.412;2023-08-24T13:06:02;35.90;91.20
16974;DHT22;8603;46.944;7.412;2023-08-24T13:08:29;35.90;91.40
16974;DHT22;8603;46.944;7.412;2023-08-24T13:10:55;35.90;91.00
16974;DHT22;8603;46.944;7.412;2023-08-24T13:13:20;35.90;91.30
16974;DHT22;8603;46.944;7.412;2023-08-24T13:15:48;36.00;91.80
16974;DHT22;8603;46.944;7.412;2023-08-24T13:18:17;35.90;91.10
16974;DHT22;8603;46.944;7.412;2023-08-24T13:20:43;35.70;91.10
16974;DHT22;8603;46.944;7.412;2023-08-24T13:23:09;35.60;91.40
16974;DHT22;8603;46.944;7.412;2023-08-24T13:25:34;35.50;91.70
16974;DHT22;8603;46.944;7.412;2023-08-24T13:28:00;35.40;91.80
16974;DHT22;8603;46.944;7.412;2023-08-24T13:30:25;35.30;91.40
16974;DHT22;8603;46.944;7.412;2023-08-24T13:32:52;35.20;91.40
16974;DHT22;8603;46.944;7.412;2023-08-24T13:35:18;35.10;91.20
16974;DHT22;8603;46.944;7.412;2023-08-24T13:37:44;35.10;91.60
16974;DHT22;8603;46.944;7.412;2023-08-24T13:40:10;35.00;90.80
16974;DHT22;8603;46.944;7.412;2023-08-24T13:42:35;35.00;90.70
16974;DHT22;8603;46.944;7.412;2023-08-24T13:45:01;35.00;90.80
16974;DHT22;8603;46.944;7.412;2023-08-24T13:47:28;35.00;91.10
16974;DHT22;8603;46.944;7.412;2023-08-24T13:49:54;34.90;90.90
16974;DHT22;8603;46.944;7.412;2023-08-24T13:52:19;34.90;90.90
16974;DHT22;8603;46.944;7.412;2023-08-24T13:54:45;34.80;91.10
16974;DHT22;8603;46.944;7.412;2023-08-24T13:57:11;34.80;91.10
16974;DHT22;8603;46.944;7.412;2023-08-24T13:59:36;34.80;91.30
16974;DHT22;8603;46.944;7.412;2023-08-24T14:02:03;34.70;91.40
16974;DHT22;8603;46.944;7.412;2023-08-24T14:04:29;34.60;91.20
16974;DHT22;8603;46.944;7.412;2023-08-24T14:06:55;34.60;91.50
16974;DHT22;8603;46.944;7.412;2023-08-24T14:09:20;34.60;91.50
16974;DHT22;8603;46.944;7.412;2023-08-24T14:11:46;34.60;91.80
16974;DHT22;8603;46.944;7.412;2023-08-24T14:14:13;34.50;91.90
16974;DHT22;8603;46.944;7.412;2023-08-24T14:16:39;34.50;92.00
16974;DHT22;8603;46.944;7.412;2023-08-24T14:19:04;34.60;91.90
16974;DHT22;8603;46.944;7.412;2023-08-24T14:21:37;34.80;91.50
16974;DHT22;8603;46.944;7.412;2023-08-24T14:24:04;35.00;91.80
16974;DHT22;8603;46.944;7.412;2023-08-24T14:26:30;35.20;91.70
16974;DHT22;8603;46.944;7.412;2023-08-24T14:28:58;35.40;91.10
16974;DHT22;8603;46.944;7.412;2023-08-24T14:31:26;35.60;91.20
16974;DHT22;8603;46.944;7.412;2023-08-24T14:33:52;35.50;90.90
16974;DHT22;8603;46.944;7.412;2023-08-24T14:36:18;35.50;90.90
16974;DHT22;8603;46.944;7.412;2023-08-24T14:38:46;35.50;90.20
16974;DHT22;8603;46.944;7.412;2023-08-24T14:41:13;35.50;90.50
16974;DHT22;8603;46.944;7.412;2023-08-24T14:43:39;35.50;90.10
16974;DHT22;8603;46.944;7.412;2023-08-24T14:46:05;35.50;90.40
16974;DHT22;8603;46.944;7.412;2023-08-24T14:48:31;35.60;89.90
16974;DHT22;8603;46.944;7.412;2023-08-24T14:50:57;35.60;87.90
16974;DHT22;8603;46.944;7.412;2023-08-24T14:53:26;35.60;88.00
16974;DHT22;8603;46.944;7.412;2023-08-24T14:55:53;35.70;85.80
16974;DHT22;8603;46.944;7.412;2023-08-24T14:58:20;35.80;86.90
16974;DHT22;8603;46.944;7.412;2023-08-24T15:00:46;35.90;87.40
16974;DHT22;8603;46.944;7.412;2023-08-24T15:03:12;35.90;88.00
16974;DHT22;8603;46.944;7.412;2023-08-24T15:05:42;36.00;86.90
16974;DHT22;8603;46.944;7.412;2023-08-24T15:08:07;36.00;87.40
16974;DHT22;8603;46.944;7.412;2023-08-24T15:10:33;36.00;88.10
16974;DHT22;8603;46.944;7.412;2023-08-24T15:12:59;36.00;85.90
16974;DHT22;8603;46.944;7.412;2023-08-24T15:15:24;36.00;85.80
16974;DHT22;8603;46.944;7.412;2023-08-24T15:17:50;36.00;86.00
16974;DHT22;8603;46.944;7.412;2023-08-24T15:20:16;36.00;86.20
16974;DHT22;8603;46.944;7.412;2023-08-24T15:22:41;35.90;86.20
16974;DHT22;8603;46.944;7.412;2023-08-24T15:25:07;35.90;85.60
16974;DHT22;8603;46.944;7.412;2023-08-24T15:27:33;35.90;86.00
16974;DHT22;8603;46.944;7.412;2023-08-24T15:29:59;35.90;85.20
16974;DHT22;8603;46.944;7.412;2023-08-24T15:32:26;35.90;85.50
16974;DHT22;8603;46.944;7.412;2023-08-24T15:34:52;35.90;85.80
16974;DHT22;8603;46.944;7.412;2023-08-24T15:37:19;35.80;86.20
16974;DHT22;8603;46.944;7.412;2023-08-24T15:39:45;35.70;86.50
16974;DHT22;8603;46.944;7.412;2023-08-24T15:42:10;35.60;87.60
16974;DHT22;8603;46.944;7.412;2023-08-24T15:44:36;35.50;87.20
16974;DHT22;8603;46.944;7.412;2023-08-24T15:47:01;35.40;88.10
16974;DHT22;8603;46.944;7.412;2023-08-24T15:49:27;35.30;87.70
16974;DHT22;8603;46.944;7.412;2023-08-24T15:51:53;35.20;87.90
16974;DHT22;8603;46.944;7.412;2023-08-24T15:54:19;35.10;88.40
16974;DHT22;8603;46.944;7.412;2023-08-24T15:56:44;35.00;89.30
16974;DHT22;8603;46.944;7.412;2023-08-24T15:59:12;34.90;88.80
16974;DHT22;8603;46.944;7.412;2023-08-24T16:01:38;34.90;89.50
16974;DHT22;8603;46.944;7.412;2023-08-24T16:04:04;34.80;90.00
16974;DHT22;8603;46.944;7.412;2023-08-24T16:06:30;34.80;90.10
16974;DHT22;8603;46.944;7.412;2023-08-24T16:08:56;34.70;90.10